Avondale, Arizona
Current Conditions -  °F | °C
As of 5:47 PM on Friday 19 Dec 2014 (Local Time) from KGYR Reporting Station
Scattered Clouds Scattered Clouds  
Wind Chill: 59°   Ceiling: Unl
Heat Index: 59°   Visibility: 10mi
Dew Point: 37°   Wind: 0mph
Humidity: 45%   Direction: NA
Pressure: 30.13"   Gusts: NA
Location:  33.44°N, 112.34°W
Report Text: KGYR 200047Z 00000KT 10SM FEW200 SCT250 15/03 A3013
Loading
Personal Weather Stations






























Interactive Weather Map New forecast layout! Learn more

10-Day Weather Forecast

Advertisements
Track Severe Weather on mobile